Time;durP1;ratioP1;P1;durP2;ratioP2;P2;SDS_P1;SDS_P2;PMS_P1;PMS_P2;Temp;Humidity;BMP_temperature;BMP_pressure;BME280_temperature;BME280_humidity;BME280_pressure;Samples;Min_cycle;Max_cycle;Signal;HPM_P1;HPM_P2
2023/10/02 00:01:36;;;;;;;12.98;9.88;;;23.30;99.90;;;;;;6225910;28;94404;-72
2023/10/02 00:04:38;;;;;;;14.32;9.90;;;23.20;99.90;;;;;;6224988;28;93968;-74
2023/10/02 00:07:45;;;;;;;14.20;10.00;;;23.20;99.90;;;;;;6214610;28;94976;-73
2023/10/02 00:10:47;;;;;;;13.50;9.48;;;23.20;99.90;;;;;;6215080;28;94061;-72
2023/10/02 00:14:18;;;;;;;13.50;9.75;;;23.20;99.90;;;;;;6225314;28;94133;-73
2023/10/02 00:17:15;;;;;;;12.20;9.20;;;23.20;99.90;;;;;;6217171;28;93670;-72
2023/10/02 00:20:21;;;;;;;11.55;9.25;;;23.20;99.90;;;;;;6215472;28;93811;-72
2023/10/02 00:23:23;;;;;;;12.75;9.52;;;23.20;99.90;;;;;;6205964;28;94291;-73
2023/10/02 00:26:25;;;;;;;12.35;9.43;;;23.20;99.90;;;;;;6210450;28;94826;-73
2023/10/02 00:29:29;;;;;;;13.35;10.07;;;23.20;99.90;;;;;;6223186;28;93713;-72
2023/10/02 00:32:33;;;;;;;12.85;9.63;;;23.20;99.90;;;;;;6218133;28;94151;-71
2023/10/02 00:35:50;;;;;;;14.23;9.60;;;23.10;99.90;;;;;;6223569;28;93905;-72
2023/10/02 00:38:52;;;;;;;11.13;9.50;;;23.10;99.90;;;;;;6210271;28;95229;-72
2023/10/02 00:42:15;;;;;;;12.73;9.45;;;23.10;99.90;;;;;;6220538;28;94412;-72
2023/10/02 00:45:18;;;;;;;12.60;8.77;;;23.10;99.90;;;;;;6220470;28;94145;-72
2023/10/02 00:48:28;;;;;;;13.95;9.68;;;23.10;99.90;;;;;;6226905;28;94053;-72
2023/10/02 00:51:29;;;;;;;15.30;9.80;;;23.10;99.90;;;;;;6229318;28;94346;-71
2023/10/02 00:54:34;;;;;;;14.27;9.38;;;23.10;99.90;;;;;;6226625;28;94169;-72
2023/10/02 00:57:39;;;;;;;13.25;9.40;;;23.10;99.90;;;;;;6230713;28;94117;-73
2023/10/02 01:00:47;;;;;;;12.63;9.55;;;23.10;99.90;;;;;;6228135;28;93306;-72
2023/10/02 01:07:11;;;;;;;11.68;9.32;;;23.10;99.90;;;;;;6224785;28;93482;-72
2023/10/02 01:10:23;;;;;;;13.50;9.13;;;23.10;99.90;;;;;;6222409;27;95095;-72
2023/10/02 01:13:29;;;;;;;12.50;8.90;;;23.10;99.90;;;;;;6225605;28;94152;-72
2023/10/02 01:16:36;;;;;;;13.77;9.18;;;23.10;99.90;;;;;;6224960;28;94000;-72
2023/10/02 01:19:52;;;;;;;14.35;9.43;;;23.10;99.90;;;;;;6224500;28;94632;-73
2023/10/02 01:23:11;;;;;;;13.05;9.65;;;23.10;99.90;;;;;;6218662;28;94241;-72
2023/10/02 01:26:18;;;;;;;12.48;8.98;;;23.10;99.90;;;;;;6220887;28;94188;-72
2023/10/02 01:29:22;;;;;;;13.80;9.23;;;23.10;99.90;;;;;;6223283;28;94139;-72
2023/10/02 01:32:25;;;;;;;11.88;8.98;;;23.00;99.90;;;;;;6224980;28;93701;-72
2023/10/02 01:35:29;;;;;;;13.00;9.38;;;23.00;99.90;;;;;;6224182;28;94645;-72
2023/10/02 01:38:32;;;;;;;12.02;8.80;;;23.00;99.90;;;;;;6224556;28;94047;-72
2023/10/02 01:41:35;;;;;;;13.35;8.57;;;23.00;99.90;;;;;;6218355;28;95001;-72
2023/10/02 01:44:54;;;;;;;13.82;9.38;;;23.00;99.90;;;;;;6221876;28;93386;-73
2023/10/02 01:47:56;;;;;;;13.52;9.13;;;23.00;99.90;;;;;;6224067;28;94353;-72
2023/10/02 01:51:15;;;;;;;13.02;9.10;;;23.00;99.90;;;;;;6210796;28;94070;-72
2023/10/02 01:54:19;;;;;;;11.68;8.90;;;23.00;99.90;;;;;;6221870;28;94094;-72
2023/10/02 01:57:29;;;;;;;11.30;8.60;;;23.00;99.90;;;;;;6213374;28;93995;-73
2023/10/02 02:00:32;;;;;;;10.15;8.27;;;23.00;99.90;;;;;;6215430;28;94039;-72
2023/10/02 02:03:35;;;;;;;12.15;8.68;;;23.00;99.90;;;;;;6224574;28;93821;-72
2023/10/02 02:06:51;;;;;;;11.15;8.27;;;23.00;99.90;;;;;;6223818;28;94075;-73
2023/10/02 02:09:53;;;;;;;11.23;8.50;;;23.00;99.90;;;;;;6219134;28;94290;-73
2023/10/02 02:12:56;;;;;;;11.10;8.18;;;23.00;99.90;;;;;;6214600;28;95254;-73
2023/10/02 02:16:07;;;;;;;11.73;8.18;;;23.00;99.90;;;;;;6211495;28;94488;-72
2023/10/02 02:19:12;;;;;;;10.85;8.00;;;23.00;99.90;;;;;;6221399;28;94137;-73
2023/10/02 02:22:14;;;;;;;11.88;8.90;;;22.90;99.90;;;;;;6222033;28;94146;-71
2023/10/02 02:25:26;;;;;;;11.02;8.40;;;23.00;99.90;;;;;;6223751;28;94061;-72
2023/10/02 02:28:30;;;;;;;11.32;8.85;;;23.00;99.90;;;;;;6224782;28;93375;-73
2023/10/02 02:31:32;;;;;;;10.95;8.48;;;23.00;99.90;;;;;;6223058;28;93920;-73
2023/10/02 02:34:36;;;;;;;12.32;8.48;;;23.00;99.90;;;;;;6223894;28;93379;-73
2023/10/02 02:37:41;;;;;;;13.20;9.07;;;23.00;99.90;;;;;;6224384;28;94043;-74
2023/10/02 02:40:43;;;;;;;10.35;8.25;;;23.00;99.90;;;;;;6223363;28;94322;-73
2023/10/02 02:43:47;;;;;;;14.05;9.00;;;22.90;99.90;;;;;;6213543;28;95044;-73
2023/10/02 02:46:54;;;;;;;13.20;9.32;;;23.00;99.90;;;;;;6223687;28;94105;-73
2023/10/02 02:49:59;;;;;;;11.77;8.85;;;22.90;99.90;;;;;;6223054;28;94598;-73
2023/10/02 02:56:18;;;;;;;10.50;8.45;;;23.00;99.90;;;;;;6224398;28;92939;-73
2023/10/02 02:59:22;;;;;;;11.18;8.50;;;22.90;99.90;;;;;;6226882;28;96211;-73
2023/10/02 03:02:24;;;;;;;11.20;8.48;;;22.90;99.90;;;;;;6226223;28;94166;-73
2023/10/02 03:05:37;;;;;;;10.75;8.50;;;22.90;99.90;;;;;;6227108;28;93475;-74
2023/10/02 03:08:41;;;;;;;9.95;8.20;;;22.90;99.90;;;;;;6219449;28;93091;-73
2023/10/02 03:11:42;;;;;;;13.30;9.43;;;22.90;99.90;;;;;;6222126;28;94035;-73
2023/10/02 03:14:47;;;;;;;11.68;8.63;;;22.90;99.90;;;;;;6226086;28;95506;-72
2023/10/02 03:17:50;;;;;;;12.63;9.13;;;23.00;99.90;;;;;;6205962;28;94131;-73
2023/10/02 03:20:52;;;;;;;11.20;8.63;;;22.90;99.90;;;;;;6227868;28;94168;-73
2023/10/02 03:23:58;;;;;;;11.38;8.85;;;22.90;99.90;;;;;;6215404;28;94227;-73
2023/10/02 03:27:00;;;;;;;11.07;8.60;;;22.90;99.90;;;;;;6226661;28;94236;-73
2023/10/02 03:30:06;;;;;;;12.60;8.63;;;22.90;99.90;;;;;;6213431;28;94397;-72
2023/10/02 03:33:19;;;;;;;11.93;8.45;;;22.90;99.90;;;;;;6209947;28;94105;-72
2023/10/02 03:36:21;;;;;;;11.45;8.65;;;22.90;99.90;;;;;;6220259;28;93253;-72
2023/10/02 03:39:52;;;;;;;12.40;8.85;;;22.90;99.90;;;;;;6221379;28;94167;-72
2023/10/02 03:42:54;;;;;;;11.77;8.93;;;22.90;99.90;;;;;;6226004;28;93758;-72
2023/10/02 03:46:01;;;;;;;13.68;9.32;;;22.80;99.90;;;;;;6216147;28;95176;-72
2023/10/02 03:49:05;;;;;;;16.33;9.75;;;22.80;99.90;;;;;;6220061;28;94457;-72
2023/10/02 03:52:07;;;;;;;12.10;8.75;;;22.90;99.90;;;;;;6215488;28;94160;-71
2023/10/02 03:55:17;;;;;;;11.13;8.70;;;22.80;99.90;;;;;;6226715;28;94224;-72
2023/10/02 03:58:35;;;;;;;10.52;8.20;;;22.80;99.90;;;;;;6219305;28;94547;-72
2023/10/02 04:01:40;;;;;;;10.98;8.60;;;22.80;99.90;;;;;;6226699;28;94338;-72
2023/10/02 04:04:43;;;;;;;10.93;8.60;;;22.80;99.90;;;;;;6225785;28;94296;-72
2023/10/02 04:07:47;;;;;;;9.98;7.97;;;22.80;99.90;;;;;;6226232;28;92321;-72
2023/10/02 04:10:56;;;;;;;10.18;8.18;;;22.90;99.90;;;;;;6224810;28;94871;-72
2023/10/02 04:13:59;;;;;;;11.13;8.45;;;22.80;99.90;;;;;;6222937;28;93400;-72
2023/10/02 04:17:12;;;;;;;10.50;7.90;;;22.80;99.90;;;;;;6218010;28;95068;-71
2023/10/02 04:20:27;;;;;;;10.50;8.30;;;22.80;99.90;;;;;;6223529;28;94230;-72
2023/10/02 04:23:29;;;;;;;11.10;8.77;;;22.80;99.90;;;;;;6227436;28;93100;-72
2023/10/02 04:26:33;;;;;;;11.20;8.35;;;22.90;99.90;;;;;;6223361;28;94179;-72
2023/10/02 04:29:38;;;;;;;11.20;8.75;;;22.80;99.90;;;;;;6222418;28;94264;-73
2023/10/02 04:32:42;;;;;;;10.07;8.40;;;22.80;99.90;;;;;;6229819;28;94029;-72
2023/10/02 04:35:54;;;;;;;10.20;8.00;;;22.80;99.90;;;;;;6220180;28;94055;-72
2023/10/02 04:38:59;;;;;;;11.45;8.68;;;22.80;99.90;;;;;;6230080;28;92375;-73
2023/10/02 04:42:11;;;;;;;11.35;8.25;;;22.70;99.90;;;;;;6230702;28;93950;-72
2023/10/02 04:45:20;;;;;;;10.95;8.27;;;22.80;99.90;;;;;;6228992;28;94080;-72
2023/10/02 04:48:26;;;;;;;11.15;8.15;;;22.70;99.90;;;;;;6225769;28;94960;-72
2023/10/02 04:51:28;;;;;;;10.05;8.05;;;22.80;99.90;;;;;;6226909;28;95015;-71
2023/10/02 04:54:30;;;;;;;11.52;8.45;;;22.80;99.90;;;;;;6223905;28;94153;-72
2023/10/02 04:57:35;;;;;;;13.82;8.82;;;22.80;99.90;;;;;;6229377;28;94521;-75
2023/10/02 05:01:07;;;;;;;13.15;9.38;;;22.80;99.90;;;;;;6222505;28;94274;-71
2023/10/02 05:04:04;;;;;;;11.77;8.30;;;22.80;99.90;;;;;;6219554;28;93143;-72
2023/10/02 05:07:06;;;;;;;11.20;8.80;;;22.80;99.90;;;;;;6222387;28;94002;-71
2023/10/02 05:10:09;;;;;;;11.75;8.60;;;22.80;99.90;;;;;;6228883;28;93589;-71
2023/10/02 05:13:11;;;;;;;12.90;8.82;;;22.70;99.90;;;;;;6226721;28;93895;-72
2023/10/02 05:16:12;;;;;;;11.63;8.48;;;22.80;99.90;;;;;;6219768;28;94083;-72
2023/10/02 05:19:16;;;;;;;10.68;7.97;;;22.80;99.90;;;;;;6227174;28;94969;-72
2023/10/02 05:22:17;;;;;;;15.18;8.50;;;22.80;99.90;;;;;;6220539;28;94068;-72
2023/10/02 05:25:20;;;;;;;12.60;8.05;;;22.80;99.90;;;;;;6225415;28;94103;-72
2023/10/02 05:28:22;;;;;;;12.27;8.10;;;22.80;99.90;;;;;;6228895;28;95067;-72
2023/10/02 05:31:26;;;;;;;10.57;8.25;;;22.90;99.90;;;;;;6223338;28;94353;-72
2023/10/02 05:34:30;;;;;;;11.60;8.55;;;22.80;99.90;;;;;;6227767;28;94259;-72
2023/10/02 05:37:32;;;;;;;11.93;8.45;;;22.80;99.90;;;;;;6225031;28;94124;-72
2023/10/02 05:40:38;;;;;;;11.77;8.20;;;22.80;99.90;;;;;;6229507;28;93321;-72
2023/10/02 05:43:55;;;;;;;13.85;8.98;;;22.80;99.90;;;;;;6228522;28;94230;-72
2023/10/02 05:47:04;;;;;;;11.45;8.65;;;22.80;99.90;;;;;;6215338;28;94689;-72
2023/10/02 05:50:09;;;;;;;11.07;8.23;;;22.80;99.90;;;;;;6224065;28;95152;-72
2023/10/02 05:53:11;;;;;;;10.57;8.52;;;22.80;99.90;;;;;;6226756;28;94072;-72
2023/10/02 05:56:13;;;;;;;11.00;9.00;;;22.80;99.90;;;;;;6226306;28;94131;-72
2023/10/02 05:59:24;;;;;;;9.75;7.80;;;22.90;99.90;;;;;;6225643;28;93714;-72
2023/10/02 06:02:27;;;;;;;10.32;8.15;;;22.90;99.90;;;;;;6228626;28;94318;-72
2023/10/02 06:05:31;;;;;;;11.40;8.50;;;22.90;99.90;;;;;;6227288;28;94162;-72
2023/10/02 06:08:34;;;;;;;11.43;8.65;;;22.90;99.90;;;;;;6228346;28;94019;-72
2023/10/02 06:11:59;;;;;;;11.90;8.25;;;22.90;99.90;;;;;;6227653;28;93697;-72
2023/10/02 06:15:03;;;;;;;11.25;8.05;;;22.90;99.90;;;;;;6223964;28;93507;-71
2023/10/02 06:18:06;;;;;;;11.50;8.18;;;23.00;99.90;;;;;;6218505;28;94132;-72
2023/10/02 06:21:10;;;;;;;11.07;8.27;;;23.00;99.90;;;;;;6225532;28;93910;-73
2023/10/02 06:24:15;;;;;;;10.52;8.00;;;22.90;99.90;;;;;;6217275;28;94274;-72
2023/10/02 06:27:22;;;;;;;10.73;8.43;;;23.00;99.90;;;;;;6227801;28;94072;-72
2023/10/02 06:30:24;;;;;;;11.88;8.50;;;23.00;99.90;;;;;;6225211;28;94289;-71
2023/10/02 06:33:26;;;;;;;9.63;7.85;;;23.00;99.90;;;;;;6228310;28;94161;-71
2023/10/02 06:36:33;;;;;;;12.05;8.43;;;22.90;99.90;;;;;;6227797;28;93756;-71
2023/10/02 06:39:36;;;;;;;11.40;8.73;;;22.90;99.90;;;;;;6226948;28;94550;-71
2023/10/02 06:42:48;;;;;;;12.25;8.90;;;22.90;99.90;;;;;;6227970;28;93579;-71
2023/10/02 06:46:06;;;;;;;12.80;9.23;;;22.90;99.90;;;;;;6219626;28;94311;-72
2023/10/02 06:49:15;;;;;;;12.25;8.52;;;22.90;99.90;;;;;;6220764;28;94387;-73
2023/10/02 06:52:19;;;;;;;18.60;9.30;;;22.90;99.90;;;;;;6217909;28;95060;-72
2023/10/02 06:55:21;;;;;;;14.85;9.50;;;22.90;99.90;;;;;;6227148;28;94415;-72
2023/10/02 06:58:26;;;;;;;13.00;8.65;;;22.90;99.90;;;;;;6229014;28;94116;-72
2023/10/02 07:01:28;;;;;;;14.05;8.95;;;22.90;99.90;;;;;;6225441;28;94112;-72
2023/10/02 07:04:31;;;;;;;12.88;8.68;;;22.80;99.90;;;;;;6223667;28;94437;-72
2023/10/02 07:07:34;;;;;;;14.55;8.48;;;22.80;99.90;;;;;;6217069;28;94054;-72
2023/10/02 07:10:42;;;;;;;12.25;8.75;;;22.90;99.90;;;;;;6220223;28;94294;-72
2023/10/02 07:13:56;;;;;;;12.93;8.75;;;22.80;99.90;;;;;;6208042;28;93386;-72
2023/10/02 07:17:11;;;;;;;13.40;9.40;;;22.80;99.90;;;;;;6220201;28;94208;-72
2023/10/02 07:20:14;;;;;;;13.93;9.20;;;22.80;99.90;;;;;;6216410;28;94215;-72
2023/10/02 07:23:19;;;;;;;13.20;9.20;;;22.80;99.90;;;;;;6219602;28;95083;-72
2023/10/02 07:26:49;;;;;;;11.73;8.68;;;22.80;99.90;;;;;;6222157;28;94672;-72
2023/10/02 07:29:48;;;;;;;12.75;8.40;;;22.90;99.90;;;;;;6224152;28;93511;-72
2023/10/02 07:32:53;;;;;;;14.98;8.45;;;22.80;99.90;;;;;;6225796;28;94188;-72
2023/10/02 07:35:56;;;;;;;13.30;8.88;;;22.80;99.90;;;;;;6226708;28;94193;-72
2023/10/02 07:39:00;;;;;;;13.82;8.77;;;22.80;99.90;;;;;;6221727;28;94083;-72
2023/10/02 07:42:04;;;;;;;13.70;9.10;;;22.90;99.90;;;;;;6221805;28;94201;-73
2023/10/02 07:45:24;;;;;;;12.18;8.27;;;22.80;99.90;;;;;;6226271;28;94460;-73
2023/10/02 07:48:26;;;;;;;12.07;8.52;;;22.80;99.90;;;;;;6218070;28;94612;-72
2023/10/02 07:51:35;;;;;;;12.85;8.98;;;22.80;99.90;;;;;;6222611;28;94652;-72
2023/10/02 07:54:45;;;;;;;11.77;8.65;;;22.80;99.90;;;;;;6226793;28;95094;-72
2023/10/02 07:57:57;;;;;;;12.07;8.23;;;22.80;99.90;;;;;;6231554;28;93957;-72
2023/10/02 08:01:06;;;;;;;12.13;9.00;;;22.80;99.90;;;;;;6230713;28;94467;-72
2023/10/02 08:04:08;;;;;;;11.68;8.30;;;22.80;99.90;;;;;;6220606;28;94190;-72
2023/10/02 08:07:11;;;;;;;13.32;9.05;;;22.80;99.90;;;;;;6218300;28;94384;-72
2023/10/02 08:10:15;;;;;;;14.43;9.00;;;22.80;99.90;;;;;;6225929;28;94423;-72
2023/10/02 08:13:18;;;;;;;13.85;9.07;;;22.80;99.90;;;;;;6225838;28;94005;-72
2023/10/02 08:16:22;;;;;;;12.13;8.75;;;22.80;99.90;;;;;;6230568;28;93213;-72
2023/10/02 08:19:24;;;;;;;14.20;8.77;;;22.80;99.90;;;;;;6206675;28;93301;-73
2023/10/02 08:22:35;;;;;;;11.77;8.45;;;22.80;99.90;;;;;;6228648;28;94168;-72
2023/10/02 08:25:38;;;;;;;12.40;8.82;;;22.80;99.90;;;;;;6230682;28;95283;-72
2023/10/02 08:28:43;;;;;;;11.32;8.38;;;22.80;99.90;;;;;;6229273;28;94286;-72
2023/10/02 08:31:48;;;;;;;12.80;8.75;;;22.80;99.90;;;;;;6228925;28;94182;-72
2023/10/02 08:34:51;;;;;;;13.43;8.48;;;22.80;99.90;;;;;;6222527;28;94050;-72
2023/10/02 08:37:54;;;;;;;11.50;8.13;;;22.80;99.90;;;;;;6225224;28;94112;-73
2023/10/02 08:41:03;;;;;;;12.63;8.57;;;22.80;99.90;;;;;;6229343;28;94145;-72
2023/10/02 08:44:08;;;;;;;12.35;8.57;;;22.80;99.90;;;;;;6228967;28;92897;-72
2023/10/02 08:47:11;;;;;;;11.48;8.38;;;22.80;99.90;;;;;;6230878;28;93362;-72
2023/10/02 08:50:14;;;;;;;12.20;8.70;;;22.80;99.90;;;;;;6229678;28;95418;-72
2023/10/02 08:53:22;;;;;;;10.65;7.85;;;22.80;99.90;;;;;;6230158;28;94296;-72
2023/10/02 08:56:37;;;;;;;11.38;8.68;;;22.80;99.90;;;;;;6226620;28;93875;-73
2023/10/02 08:59:40;;;;;;;11.27;8.50;;;22.80;99.90;;;;;;6226894;28;93096;-72
2023/10/02 09:02:54;;;;;;;11.48;8.38;;;22.80;99.90;;;;;;6221509;28;94163;-73
2023/10/02 09:06:25;;;;;;;11.20;8.20;;;22.80;99.90;;;;;;6228379;28;94272;-73
2023/10/02 09:09:26;;;;;;;10.27;8.23;;;22.80;99.90;;;;;;6227849;28;93776;-73
2023/10/02 09:12:30;;;;;;;11.63;8.43;;;22.80;99.90;;;;;;6223680;28;94366;-72
2023/10/02 09:15:34;;;;;;;11.45;8.40;;;22.80;99.90;;;;;;6230189;28;94319;-73
2023/10/02 09:19:07;;;;;;;11.13;8.25;;;22.80;99.90;;;;;;6220058;28;93300;-72
2023/10/02 09:22:07;;;;;;;11.80;8.30;;;22.80;99.90;;;;;;6229280;28;92684;-72
2023/10/02 09:25:12;;;;;;;12.52;8.45;;;22.80;99.90;;;;;;6229829;28;94075;-73
2023/10/02 09:28:16;;;;;;;10.68;7.80;;;22.80;99.90;;;;;;6211765;28;95013;-73
2023/10/02 09:31:18;;;;;;;10.35;8.13;;;22.80;99.90;;;;;;6218247;28;94450;-72
2023/10/02 09:34:22;;;;;;;10.55;7.80;;;22.80;99.90;;;;;;6229521;28;94025;-73
2023/10/02 09:37:26;;;;;;;10.73;7.75;;;22.80;99.90;;;;;;6217558;28;94171;-73
2023/10/02 09:40:45;;;;;;;10.57;8.13;;;22.90;99.90;;;;;;6218775;28;93058;-73
2023/10/02 09:43:49;;;;;;;13.00;8.18;;;22.80;99.90;;;;;;6229179;28;94175;-72
2023/10/02 09:46:53;;;;;;;12.30;8.18;;;22.80;99.90;;;;;;6229035;28;94062;-74
2023/10/02 09:50:11;;;;;;;10.93;8.18;;;22.90;99.90;;;;;;6220578;28;93326;-70
2023/10/02 09:53:17;;;;;;;11.20;8.25;;;22.90;99.90;;;;;;6229222;28;94079;-71
2023/10/02 09:56:23;;;;;;;289.00;259.83;;;22.80;99.90;;;;;;6227965;28;92968;-72
2023/10/02 09:59:26;;;;;;;157.38;104.15;;;22.90;99.90;;;;;;6227167;28;95429;-75
2023/10/02 10:06:19;;;;;;;31.02;20.95;;;23.10;99.90;;;;;;6226263;28;92308;-72
2023/10/02 10:09:27;;;;;;;23.42;15.43;;;23.10;99.90;;;;;;6225974;28;94480;-71
2023/10/02 10:16:31;;;;;;;21.92;15.20;;;23.20;99.90;;;;;;6224313;28;94311;-72
2023/10/02 10:19:33;;;;;;;19.50;13.43;;;23.20;99.90;;;;;;6225699;28;94348;-73
2023/10/02 10:22:35;;;;;;;21.05;13.32;;;23.30;99.90;;;;;;6220139;28;93304;-73
2023/10/02 10:25:49;;;;;;;19.85;13.15;;;23.30;99.90;;;;;;6227975;28;94573;-73
2023/10/02 10:28:53;;;;;;;18.55;11.80;;;23.30;99.90;;;;;;6219264;28;94280;-69
2023/10/02 10:32:05;;;;;;;19.48;11.73;;;23.30;99.90;;;;;;6225321;28;95041;-72
2023/10/02 10:35:12;;;;;;;16.98;10.82;;;23.50;99.90;;;;;;6227789;28;94250;-74
2023/10/02 10:38:36;;;;;;;19.17;11.20;;;23.70;99.90;;;;;;6224507;28;94150;-74
2023/10/02 10:41:40;;;;;;;21.02;12.02;;;23.80;99.90;;;;;;6222957;28;94030;-73
2023/10/02 10:44:52;;;;;;;18.13;11.38;;;23.80;99.90;;;;;;6226198;28;94130;-73
2023/10/02 10:47:55;;;;;;;16.55;10.88;;;23.80;99.90;;;;;;6220122;28;94329;-73
2023/10/02 10:51:00;;;;;;;17.65;11.27;;;23.90;99.90;;;;;;6226438;28;94728;-73
2023/10/02 10:54:13;;;;;;;18.45;11.27;;;23.90;99.90;;;;;;6226518;28;93839;-74
2023/10/02 10:57:22;;;;;;;17.85;10.35;;;23.90;99.90;;;;;;6224230;28;94345;-74
2023/10/02 11:00:25;;;;;;;17.80;10.88;;;23.90;99.90;;;;;;6225993;28;92083;-74
2023/10/02 11:03:30;;;;;;;16.83;10.48;;;23.90;99.90;;;;;;6225999;28;94900;-74
2023/10/02 11:06:40;;;;;;;16.52;10.52;;;23.80;99.90;;;;;;6226239;28;93163;-74
2023/10/02 11:09:42;;;;;;;17.15;11.00;;;23.80;99.90;;;;;;6226632;28;94143;-74
2023/10/02 11:12:54;;;;;;;15.32;10.40;;;23.80;99.90;;;;;;6226168;28;94193;-74
2023/10/02 11:16:09;;;;;;;16.77;10.48;;;23.70;99.90;;;;;;6224168;28;94644;-73
2023/10/02 11:19:24;;;;;;;16.15;10.32;;;23.70;99.90;;;;;;6225667;28;93221;-75
2023/10/02 11:22:26;;;;;;;14.95;10.00;;;23.70;99.90;;;;;;6225994;28;94045;-75
2023/10/02 11:25:29;;;;;;;18.55;10.75;;;23.60;99.90;;;;;;6190095;28;93595;-75
2023/10/02 11:28:32;;;;;;;18.00;10.85;;;23.60;99.90;;;;;;6223420;28;92947;-74
2023/10/02 11:31:36;;;;;;;18.65;11.55;;;23.60;99.90;;;;;;6223756;28;94067;-74
2023/10/02 11:34:41;;;;;;;20.58;12.02;;;23.50;99.90;;;;;;6224130;28;94966;-76
2023/10/02 11:37:47;;;;;;;20.77;12.15;;;23.50;99.90;;;;;;6223987;28;94237;-74
2023/10/02 11:41:07;;;;;;;21.27;12.77;;;23.50;99.90;;;;;;6215138;28;94268;-74
2023/10/02 11:44:12;;;;;;;21.52;12.38;;;23.50;99.90;;;;;;6221478;28;94056;-74
2023/10/02 11:47:15;;;;;;;17.45;11.50;;;23.40;99.90;;;;;;6225920;28;94357;-75
2023/10/02 11:50:20;;;;;;;19.25;11.85;;;23.40;99.90;;;;;;6226879;28;93971;-74
2023/10/02 11:53:22;;;;;;;18.98;11.65;;;23.40;99.90;;;;;;6225593;28;94263;-74
2023/10/02 11:56:27;;;;;;;17.95;11.27;;;23.40;99.90;;;;;;6226415;28;92361;-74
2023/10/02 11:59:31;;;;;;;19.55;11.27;;;23.40;99.90;;;;;;6225572;28;94092;-73
2023/10/02 12:02:33;;;;;;;17.98;10.85;;;23.40;99.90;;;;;;6225228;28;93982;-73
2023/10/02 12:05:37;;;;;;;18.52;11.57;;;23.40;99.90;;;;;;6220118;28;95046;-74
2023/10/02 12:08:40;;;;;;;20.20;11.40;;;23.40;99.90;;;;;;6223822;28;94254;-74
2023/10/02 12:11:45;;;;;;;19.48;11.25;;;23.40;99.90;;;;;;6221169;28;95263;-74
2023/10/02 12:14:49;;;;;;;19.85;11.20;;;23.40;99.90;;;;;;6224153;28;93979;-73
2023/10/02 12:17:54;;;;;;;17.70;10.93;;;23.40;99.90;;;;;;6224948;28;94228;-73
2023/10/02 12:20:58;;;;;;;18.02;10.55;;;23.40;99.90;;;;;;6225055;28;95887;-73
2023/10/02 12:24:00;;;;;;;18.55;10.88;;;23.40;99.90;;;;;;6222885;28;93994;-73
2023/10/02 12:27:04;;;;;;;17.10;10.55;;;23.40;99.90;;;;;;6226035;28;93340;-74
2023/10/02 12:30:11;;;;;;;18.00;10.60;;;23.40;99.90;;;;;;6225450;28;92896;-73
2023/10/02 12:33:14;;;;;;;17.33;10.57;;;23.40;99.90;;;;;;6223817;28;93696;-74
2023/10/02 12:36:20;;;;;;;15.75;10.05;;;23.40;99.90;;;;;;6224582;28;95089;-73
2023/10/02 12:39:26;;;;;;;14.23;9.52;;;23.40;99.90;;;;;;6224498;28;94334;-73
2023/10/02 12:42:29;;;;;;;15.85;10.50;;;23.40;99.90;;;;;;6226979;28;92935;-74
2023/10/02 12:45:35;;;;;;;14.85;9.73;;;23.40;99.90;;;;;;6228218;28;94655;-73
2023/10/02 12:48:37;;;;;;;16.00;10.15;;;23.40;99.90;;;;;;6226450;28;94357;-75
2023/10/02 12:51:41;;;;;;;16.58;10.55;;;23.40;99.90;;;;;;6228446;28;94259;-74
2023/10/02 12:54:44;;;;;;;16.98;10.15;;;23.40;99.90;;;;;;6227827;28;94341;-73
2023/10/02 12:57:47;;;;;;;14.82;9.98;;;23.40;99.90;;;;;;6222202;28;93385;-74
2023/10/02 13:00:50;;;;;;;15.23;9.40;;;23.40;99.90;;;;;;6227945;28;94149;-73
2023/10/02 13:03:52;;;;;;;18.13;9.77;;;23.40;99.90;;;;;;6228989;28;94213;-73
2023/10/02 13:06:56;;;;;;;15.00;9.60;;;23.40;99.90;;;;;;6229151;28;95052;-74
2023/10/02 13:09:58;;;;;;;17.20;9.88;;;23.40;99.90;;;;;;6228190;28;94182;-73
2023/10/02 13:13:00;;;;;;;16.77;10.20;;;23.30;99.90;;;;;;6230427;28;94439;-73
2023/10/02 13:16:02;;;;;;;15.07;10.13;;;23.40;99.90;;;;;;6228031;28;92987;-73
2023/10/02 13:19:09;;;;;;;13.57;9.32;;;23.40;99.90;;;;;;6227955;28;94142;-73
2023/10/02 13:22:12;;;;;;;14.48;9.30;;;23.30;99.90;;;;;;6230088;28;94257;-74
2023/10/02 13:25:15;;;;;;;14.55;9.45;;;23.30;99.90;;;;;;6229422;28;94103;-73
2023/10/02 13:28:17;;;;;;;13.20;8.93;;;23.30;99.90;;;;;;6229220;28;93663;-74
2023/10/02 13:31:20;;;;;;;14.85;9.48;;;23.30;99.90;;;;;;6229011;28;94216;-72
2023/10/02 13:34:22;;;;;;;14.90;9.30;;;23.30;99.90;;;;;;6229028;28;94120;-73
2023/10/02 13:37:26;;;;;;;14.70;9.25;;;23.30;99.90;;;;;;6228021;28;95163;-74
2023/10/02 13:40:31;;;;;;;14.98;9.43;;;23.30;99.90;;;;;;6229129;28;94596;-74
2023/10/02 13:43:36;;;;;;;13.75;8.73;;;23.30;99.90;;;;;;6228202;28;94521;-74
2023/10/02 13:46:39;;;;;;;16.95;9.65;;;23.30;99.90;;;;;;6229336;28;94569;-74
2023/10/02 13:49:43;;;;;;;17.00;8.93;;;23.30;99.90;;;;;;6228503;28;94408;-75
2023/10/02 13:52:48;;;;;;;15.45;8.93;;;23.30;99.90;;;;;;6228033;28;94026;-75
2023/10/02 13:55:50;;;;;;;15.20;9.27;;;23.30;99.90;;;;;;6227999;28;94026;-74
2023/10/02 13:58:54;;;;;;;18.58;9.65;;;23.30;99.90;;;;;;6227237;28;93322;-74
2023/10/02 14:01:56;;;;;;;22.85;10.52;;;23.30;99.90;;;;;;6228427;28;94140;-74
2023/10/02 14:04:58;;;;;;;20.60;10.02;;;23.30;99.90;;;;;;6216502;28;94061;-75
2023/10/02 14:08:01;;;;;;;18.83;9.63;;;23.30;99.90;;;;;;6227823;28;95007;-75
2023/10/02 14:11:03;;;;;;;18.85;9.23;;;23.30;99.90;;;;;;6228935;28;94199;-75
2023/10/02 14:14:06;;;;;;;19.45;9.25;;;23.30;99.90;;;;;;6225731;28;94404;-75
2023/10/02 14:17:09;;;;;;;15.73;8.57;;;23.30;99.90;;;;;;6228378;28;94125;-75
2023/10/02 14:20:14;;;;;;;16.55;9.20;;;23.30;99.90;;;;;;6211420;28;94115;-75
2023/10/02 14:23:18;;;;;;;17.98;9.20;;;23.30;99.90;;;;;;6228186;28;94216;-74
2023/10/02 14:26:21;;;;;;;16.45;8.65;;;23.30;99.90;;;;;;6228951;28;94450;-75
2023/10/02 14:29:23;;;;;;;17.42;9.40;;;23.30;99.90;;;;;;6227999;28;93657;-75
2023/10/02 14:32:25;;;;;;;16.20;8.85;;;23.30;99.90;;;;;;6228706;28;94418;-75
2023/10/02 14:35:29;;;;;;;16.20;9.20;;;23.30;99.90;;;;;;6228673;28;92914;-75
2023/10/02 14:38:32;;;;;;;16.17;9.20;;;23.30;99.90;;;;;;6216236;28;94959;-75
2023/10/02 14:41:37;;;;;;;13.32;8.38;;;23.40;99.90;;;;;;6227156;28;94262;-75
2023/10/02 14:44:39;;;;;;;14.30;8.30;;;23.30;99.90;;;;;;6227487;28;94481;-75
2023/10/02 14:47:42;;;;;;;13.57;8.15;;;23.30;99.90;;;;;;6227979;28;94307;-75
2023/10/02 14:50:45;;;;;;;13.75;8.23;;;23.30;98.30;;;;;;6223717;28;94275;-75
2023/10/02 14:53:48;;;;;;;14.25;8.43;;;23.30;99.30;;;;;;6227924;28;94109;-75
2023/10/02 14:56:50;;;;;;;15.98;8.35;;;23.30;99.60;;;;;;6229135;28;94151;-75
2023/10/02 14:59:54;;;;;;;14.57;8.57;;;23.30;99.50;;;;;;6228254;28;93383;-74
2023/10/02 15:02:56;;;;;;;12.90;7.82;;;23.30;99.40;;;;;;6228138;28;94175;-74
2023/10/02 15:06:00;;;;;;;13.02;8.15;;;23.30;99.90;;;;;;6229074;28;94019;-75
2023/10/02 15:09:09;;;;;;;13.85;8.65;;;23.30;99.90;;;;;;6227051;28;95181;-76
2023/10/02 15:12:11;;;;;;;14.52;8.55;;;23.30;99.70;;;;;;6225500;28;93817;-75
2023/10/02 15:15:16;;;;;;;12.18;8.38;;;23.30;99.10;;;;;;6214788;28;94158;-74
2023/10/02 15:18:20;;;;;;;16.27;8.73;;;23.30;99.20;;;;;;6225734;28;94356;-75
2023/10/02 15:21:22;;;;;;;12.88;8.23;;;23.30;98.90;;;;;;6218141;28;93283;-76
2023/10/02 15:24:26;;;;;;;13.55;8.88;;;23.30;97.40;;;;;;6228126;28;93341;-74
2023/10/02 15:27:28;;;;;;;15.13;9.10;;;23.30;97.20;;;;;;6227417;28;94052;-75
2023/10/02 15:30:30;;;;;;;16.05;8.80;;;23.30;97.80;;;;;;6229530;28;93480;-74
2023/10/02 15:33:36;;;;;;;12.65;8.10;;;23.30;98.50;;;;;;6227216;28;94078;-74
2023/10/02 15:36:38;;;;;;;12.55;8.32;;;23.20;99.30;;;;;;6227540;28;93999;-75
2023/10/02 15:39:42;;;;;;;14.07;8.48;;;23.30;99.60;;;;;;6222187;28;94947;-75
2023/10/02 15:42:44;;;;;;;15.02;9.02;;;23.30;99.90;;;;;;6217433;28;94163;-74
2023/10/02 15:45:52;;;;;;;14.73;8.48;;;23.30;99.70;;;;;;6215061;28;94024;-74
2023/10/02 15:48:54;;;;;;;11.55;7.85;;;23.30;99.80;;;;;;6216968;28;94090;-74
2023/10/02 15:51:56;;;;;;;12.85;8.07;;;23.30;99.90;;;;;;6226971;28;94407;-74
2023/10/02 15:55:00;;;;;;;14.00;8.63;;;23.30;99.90;;;;;;6226931;28;93998;-73
2023/10/02 15:58:02;;;;;;;12.88;8.43;;;23.30;99.90;;;;;;6228339;28;94091;-74
2023/10/02 16:01:04;;;;;;;12.38;8.30;;;23.30;99.90;;;;;;6228077;28;92344;-73
2023/10/02 16:04:06;;;;;;;11.85;8.07;;;23.30;99.90;;;;;;6213340;28;94024;-75
2023/10/02 16:07:08;;;;;;;12.23;8.38;;;23.30;99.90;;;;;;6225763;28;94201;-74